DLH518 EDDF-MROC
Flight info
| Callsign | DLH518 |
|---|---|
| Flight time | N/A |
| Altitude | 32000 |
| Route | ULKIG Y180 DIK UN857 TOLVU DCT RAPOR DCT GIMER/N0470F310 DCT ESTOC DCT PON DCT DITAL DCT GODIX DCT DIDAK DCT AKEMO/N0470F330 DCT RIVAK/M081F320 DCT SIVIR DCT BERUX/N0468F320 DCT KOPAS/M081F320 DCT 41N020W/M081F340 37N030W 34N040W/M081F360 31N050W 2830N06000W DCT MLLER/N0465F380 DCT MNDEZ M594 CERDA A554 GTK M594 ALBBE UM594 GABUN/N0454F370 UM594 ROKMI/N0456F390 UM594 COLBY/N0455F380 DCT SPP UP798 COLOR BARRA4C |
| Aircraft | A343/H-SDE2E3FGHIJ4J5M1RWXY/LB1D1 |
Departure
| Time | 2026-04-18 10:55 |
|---|---|
| Airport | Frankfurt Main Airport (EDDF) |
Arrival
| Time | N/A |
|---|---|
| Airport | Juan Santamaría International Airport (MROC) |
| Time | Latitude | Longitude | Altitude | Speed | Heading |
|---|---|---|---|---|---|
| 2026-04-18 10:38 | 50.04653 | 8.57040 | 366 ft | 0 kts | 90° |
| 2026-04-18 10:43 | 50.04653 | 8.57031 | 359 ft | 2 kts | 88° |
| 2026-04-18 10:43 | 50.04651 | 8.57001 | 359 ft | 3 kts | 94° |
| 2026-04-18 10:43 | 50.04653 | 8.56974 | 361 ft | 3 kts | 110° |
| 2026-04-18 10:44 | 50.04662 | 8.56953 | 368 ft | 3 kts | 162° |
| 2026-04-18 10:44 | 50.04678 | 8.56952 | 365 ft | 2 kts | 203° |
| 2026-04-18 10:44 | 50.04681 | 8.56954 | 366 ft | 1 kts | 205° |
| 2026-04-18 10:44 | 50.04669 | 8.56946 | 368 ft | 1 kts | 204° |
| 2026-04-18 10:45 | 50.04668 | 8.56945 | 368 ft | 0 kts | 204° |
| 2026-04-18 10:47 | 50.04661 | 8.56940 | 368 ft | 5 kts | 204° |
| 2026-04-18 10:48 | 50.04601 | 8.56909 | 365 ft | 11 kts | 196° |
| 2026-04-18 10:48 | 50.04543 | 8.56886 | 363 ft | 7 kts | 194° |
| 2026-04-18 10:48 | 50.04496 | 8.56869 | 364 ft | 7 kts | 193° |
| 2026-04-18 10:48 | 50.04443 | 8.56853 | 368 ft | 8 kts | 189° |
| 2026-04-18 10:49 | 50.04396 | 8.56841 | 365 ft | 6 kts | 189° |
| 2026-04-18 10:49 | 50.04349 | 8.56829 | 363 ft | 9 kts | 189° |
| 2026-04-18 10:49 | 50.04302 | 8.56823 | 364 ft | 10 kts | 173° |
| 2026-04-18 10:49 | 50.04274 | 8.56910 | 368 ft | 7 kts | 72° |
| 2026-04-18 10:50 | 50.04299 | 8.57007 | 370 ft | 13 kts | 68° |
| 2026-04-18 10:50 | 50.04326 | 8.57111 | 370 ft | 18 kts | 68° |
| 2026-04-18 10:50 | 50.04377 | 8.57317 | 371 ft | 21 kts | 69° |
| 2026-04-18 10:50 | 50.04426 | 8.57519 | 365 ft | 19 kts | 70° |
| 2026-04-18 10:51 | 50.04467 | 8.57692 | 371 ft | 16 kts | 69° |
| 2026-04-18 10:51 | 50.04504 | 8.57845 | 372 ft | 14 kts | 70° |
| 2026-04-18 10:51 | 50.04535 | 8.57983 | 370 ft | 13 kts | 71° |
| 2026-04-18 10:51 | 50.04565 | 8.58117 | 370 ft | 13 kts | 71° |
| 2026-04-18 10:52 | 50.04591 | 8.58228 | 374 ft | 11 kts | 70° |
| 2026-04-18 10:52 | 50.04619 | 8.58347 | 374 ft | 12 kts | 69° |
| 2026-04-18 10:52 | 50.04647 | 8.58462 | 374 ft | 11 kts | 69° |
| 2026-04-18 10:52 | 50.04637 | 8.58554 | 373 ft | 9 kts | 133° |
| 2026-04-18 10:53 | 50.04590 | 8.58589 | 376 ft | 6 kts | 158° |
| 2026-04-18 10:53 | 50.04544 | 8.58618 | 378 ft | 7 kts | 158° |
| 2026-04-18 10:53 | 50.04504 | 8.58640 | 375 ft | 4 kts | 168° |
| 2026-04-18 10:53 | 50.04497 | 8.58626 | 378 ft | 1 kts | 241° |
| 2026-04-18 10:54 | 50.04497 | 8.58622 | 374 ft | 0 kts | 246° |
| 2026-04-18 10:54 | 50.04496 | 8.58620 | 374 ft | 3 kts | 246° |
| 2026-04-18 10:54 | 50.04456 | 8.58460 | 378 ft | 37 kts | 250° |
| 2026-04-18 10:54 | 50.04307 | 8.57825 | 373 ft | 89 kts | 250° |
| 2026-04-18 10:55 | 50.04033 | 8.56686 | 367 ft | 133 kts | 250° |
| 2026-04-18 10:55 | 50.03666 | 8.55156 | 352 ft | 170 kts | 250° |
| 2026-04-18 10:55 | 50.03216 | 8.53324 | 593 ft | 184 kts | 249° |
| 2026-04-18 10:55 | 50.02772 | 8.51468 | 1163 ft | 182 kts | 248° |
| 2026-04-18 10:56 | 50.02123 | 8.49754 | 1624 ft | 190 kts | 230° |
| 2026-04-18 10:56 | 50.01067 | 8.48442 | 1791 ft | 205 kts | 206° |
| 2026-04-18 10:56 | 49.99644 | 8.47809 | 1994 ft | 219 kts | 189° |
| 2026-04-18 10:56 | 49.98121 | 8.47485 | 2380 ft | 223 kts | 187° |
| 2026-04-18 10:57 | 49.96565 | 8.47168 | 2910 ft | 225 kts | 191° |
| 2026-04-18 10:57 | 49.95029 | 8.46610 | 3335 ft | 235 kts | 197° |
| 2026-04-18 10:57 | 49.93393 | 8.45882 | 3638 ft | 251 kts | 197° |
| 2026-04-18 10:57 | 49.91746 | 8.44867 | 3873 ft | 266 kts | 214° |
| 2026-04-18 10:58 | 49.90483 | 8.42726 | 4257 ft | 273 kts | 238° |
| 2026-04-18 10:58 | 49.89502 | 8.40168 | 4873 ft | 275 kts | 241° |
| 2026-04-18 10:58 | 49.88705 | 8.37497 | 5427 ft | 278 kts | 256° |
| 2026-04-18 10:58 | 49.88576 | 8.34475 | 5993 ft | 284 kts | 272° |
| 2026-04-18 10:59 | 49.88759 | 8.31416 | 6526 ft | 288 kts | 274° |
| 2026-04-18 10:59 | 49.88954 | 8.28287 | 7114 ft | 290 kts | 274° |
| 2026-04-18 10:59 | 49.89161 | 8.25207 | 7725 ft | 290 kts | 275° |
| 2026-04-18 10:59 | 49.89390 | 8.22068 | 8314 ft | 292 kts | 276° |
| 2026-04-18 11:00 | 49.89627 | 8.18966 | 8898 ft | 293 kts | 276° |
| 2026-04-18 11:00 | 49.89874 | 8.15823 | 9475 ft | 294 kts | 276° |
| 2026-04-18 11:00 | 49.90126 | 8.12674 | 9979 ft | 296 kts | 277° |
| 2026-04-18 11:00 | 49.90384 | 8.09484 | 10398 ft | 301 kts | 277° |
| 2026-04-18 11:01 | 49.90652 | 8.06180 | 10617 ft | 313 kts | 277° |
| 2026-04-18 11:01 | 49.90922 | 8.02797 | 10813 ft | 324 kts | 277° |
| 2026-04-18 11:01 | 49.91202 | 7.99269 | 11017 ft | 335 kts | 277° |
| 2026-04-18 11:02 | 49.91787 | 7.91877 | 11523 ft | 352 kts | 277° |
| 2026-04-18 11:02 | 49.92085 | 7.88096 | 11967 ft | 355 kts | 277° |
| 2026-04-18 11:02 | 49.92386 | 7.84263 | 12448 ft | 357 kts | 277° |
| 2026-04-18 11:02 | 49.92682 | 7.80474 | 12939 ft | 358 kts | 277° |
| 2026-04-18 11:03 | 49.92981 | 7.76632 | 13439 ft | 359 kts | 277° |
| 2026-04-18 11:03 | 49.93281 | 7.72746 | 13916 ft | 361 kts | 276° |
| 2026-04-18 11:03 | 49.93579 | 7.68885 | 14327 ft | 363 kts | 276° |
| 2026-04-18 11:03 | 49.93876 | 7.65021 | 14749 ft | 364 kts | 276° |
| 2026-04-18 11:04 | 49.94177 | 7.61067 | 15154 ft | 367 kts | 276° |
| 2026-04-18 11:04 | 49.94474 | 7.57160 | 15559 ft | 369 kts | 276° |
| 2026-04-18 11:04 | 49.94774 | 7.53178 | 15978 ft | 371 kts | 276° |
| 2026-04-18 11:04 | 49.95071 | 7.49230 | 16416 ft | 373 kts | 276° |
| 2026-04-18 11:05 | 49.95372 | 7.45214 | 16861 ft | 374 kts | 276° |
| 2026-04-18 11:05 | 49.95675 | 7.41158 | 17254 ft | 377 kts | 276° |
| 2026-04-18 11:05 | 49.95973 | 7.37137 | 17672 ft | 379 kts | 276° |
| 2026-04-18 11:05 | 49.96274 | 7.33052 | 18081 ft | 381 kts | 276° |
| 2026-04-18 11:06 | 49.96575 | 7.28950 | 18499 ft | 383 kts | 275° |
| 2026-04-18 11:06 | 49.96874 | 7.24856 | 18882 ft | 384 kts | 275° |
| 2026-04-18 11:06 | 49.97176 | 7.20697 | 19230 ft | 386 kts | 275° |
| 2026-04-18 11:06 | 49.97474 | 7.16581 | 19573 ft | 389 kts | 275° |
| 2026-04-18 11:07 | 49.97777 | 7.12370 | 19936 ft | 391 kts | 275° |
| 2026-04-18 11:07 | 49.98076 | 7.08201 | 20286 ft | 392 kts | 275° |
| 2026-04-18 11:07 | 49.98378 | 7.03959 | 20616 ft | 395 kts | 275° |
| 2026-04-18 11:07 | 49.98678 | 6.99732 | 20952 ft | 397 kts | 275° |
| 2026-04-18 11:08 | 49.98982 | 6.95427 | 21287 ft | 399 kts | 275° |
| 2026-04-18 11:08 | 49.99202 | 6.91170 | 21592 ft | 400 kts | 270° |
| 2026-04-18 11:08 | 49.99199 | 6.86848 | 21929 ft | 402 kts | 268° |
| 2026-04-18 11:08 | 49.99127 | 6.82470 | 22230 ft | 404 kts | 267° |
| 2026-04-18 11:09 | 49.99011 | 6.78087 | 22575 ft | 405 kts | 266° |
| 2026-04-18 11:09 | 49.98875 | 6.73743 | 22894 ft | 407 kts | 266° |
| 2026-04-18 11:09 | 49.98730 | 6.69322 | 23202 ft | 409 kts | 266° |
| 2026-04-18 11:09 | 49.98585 | 6.64926 | 23499 ft | 411 kts | 266° |
| 2026-04-18 11:10 | 49.98413 | 6.60450 | 23792 ft | 413 kts | 263° |
| 2026-04-18 11:10 | 49.97930 | 6.56080 | 24014 ft | 414 kts | 255° |
| 2026-04-18 11:10 | 49.97037 | 6.51812 | 24262 ft | 416 kts | 250° |
| 2026-04-18 11:10 | 49.95980 | 6.47615 | 24514 ft | 417 kts | 248° |
| 2026-04-18 11:11 | 49.94855 | 6.43505 | 24770 ft | 418 kts | 247° |
| 2026-04-18 11:11 | 49.93676 | 6.39355 | 25024 ft | 420 kts | 246° |
| 2026-04-18 11:11 | 49.92478 | 6.35196 | 25326 ft | 420 kts | 246° |
| 2026-04-18 11:11 | 49.91300 | 6.31102 | 25669 ft | 419 kts | 246° |
| 2026-04-18 11:12 | 49.90105 | 6.26927 | 25899 ft | 421 kts | 246° |
| 2026-04-18 11:12 | 49.88905 | 6.22824 | 26112 ft | 422 kts | 246° |
| 2026-04-18 11:12 | 49.87689 | 6.18644 | 26347 ft | 424 kts | 247° |
| 2026-04-18 11:12 | 49.86454 | 6.14538 | 26572 ft | 425 kts | 243° |
| 2026-04-18 11:13 | 49.84930 | 6.10598 | 26793 ft | 427 kts | 238° |
| 2026-04-18 11:13 | 49.83282 | 6.06752 | 26990 ft | 429 kts | 237° |
| 2026-04-18 11:13 | 49.81594 | 6.02981 | 27199 ft | 430 kts | 236° |
| 2026-04-18 11:13 | 49.79844 | 5.99166 | 27311 ft | 433 kts | 236° |
| 2026-04-18 11:14 | 49.78081 | 5.95364 | 27499 ft | 435 kts | 236° |
| 2026-04-18 11:14 | 49.76336 | 5.91611 | 27717 ft | 436 kts | 236° |
| 2026-04-18 11:14 | 49.74706 | 5.87635 | 27923 ft | 436 kts | 243° |
| 2026-04-18 11:14 | 49.73417 | 5.83399 | 28221 ft | 434 kts | 248° |
| 2026-04-18 11:15 | 49.72315 | 5.79103 | 28441 ft | 434 kts | 250° |
| 2026-04-18 11:15 | 49.71258 | 5.74698 | 28630 ft | 435 kts | 250° |
| 2026-04-18 11:15 | 49.70239 | 5.70297 | 28838 ft | 436 kts | 251° |
| 2026-04-18 11:15 | 49.69240 | 5.65929 | 29124 ft | 434 kts | 251° |
| 2026-04-18 11:16 | 49.68228 | 5.61517 | 29400 ft | 434 kts | 251° |
| 2026-04-18 11:16 | 49.67212 | 5.57115 | 29653 ft | 433 kts | 251° |
| 2026-04-18 11:16 | 49.66202 | 5.52770 | 29895 ft | 432 kts | 250° |
| 2026-04-18 11:16 | 49.65175 | 5.48381 | 30149 ft | 431 kts | 250° |
| 2026-04-18 11:17 | 49.64162 | 5.44076 | 30378 ft | 431 kts | 250° |
| 2026-04-18 11:17 | 49.63132 | 5.39711 | 30617 ft | 429 kts | 250° |
| 2026-04-18 11:17 | 49.62125 | 5.35435 | 30919 ft | 425 kts | 251° |
| 2026-04-18 11:17 | 49.61166 | 5.31141 | 31082 ft | 425 kts | 251° |
| 2026-04-18 11:18 | 49.60240 | 5.26790 | 31223 ft | 426 kts | 252° |
| 2026-04-18 11:18 | 49.59330 | 5.22440 | 31395 ft | 425 kts | 252° |
| 2026-04-18 11:18 | 49.58439 | 5.18069 | 31599 ft | 424 kts | 253° |
| 2026-04-18 11:18 | 49.57652 | 5.13730 | 31770 ft | 424 kts | 255° |
| 2026-04-18 11:19 | 49.56902 | 5.09313 | 31953 ft | 423 kts | 255° |
| 2026-04-18 11:19 | 49.56176 | 5.04973 | 32125 ft | 422 kts | 255° |
| 2026-04-18 11:19 | 49.54686 | 4.96261 | 32199 ft | 417 kts | 255° |
| 2026-04-18 11:20 | 49.53172 | 4.87704 | 32200 ft | 413 kts | 254° |
| 2026-04-18 11:20 | 49.51646 | 4.79229 | 32201 ft | 412 kts | 254° |
| 2026-04-18 11:21 | 49.50103 | 4.70703 | 32197 ft | 412 kts | 253° |
| 2026-04-18 11:21 | 49.48568 | 4.62258 | 32195 ft | 412 kts | 253° |
| 2026-04-18 11:22 | 49.47020 | 4.53773 | 32194 ft | 412 kts | 253° |
| 2026-04-18 11:22 | 49.45472 | 4.45325 | 32207 ft | 412 kts | 253° |
| 2026-04-18 11:23 | 49.43911 | 4.36845 | 32188 ft | 409 kts | 253° |
| 2026-04-18 11:23 | 49.42359 | 4.28450 | 32195 ft | 410 kts | 253° |
| 2026-04-18 11:24 | 49.40794 | 4.20029 | 32196 ft | 410 kts | 253° |
| 2026-04-18 11:24 | 49.39225 | 4.11625 | 32195 ft | 410 kts | 253° |
| 2026-04-18 11:25 | 49.37649 | 4.03216 | 32193 ft | 410 kts | 253° |
| 2026-04-18 11:25 | 49.36081 | 3.94800 | 32192 ft | 410 kts | 255° |
| 2026-04-18 11:26 | 49.34827 | 3.86267 | 32190 ft | 411 kts | 257° |
| 2026-04-18 11:26 | 49.33674 | 3.77589 | 32186 ft | 416 kts | 257° |
| 2026-04-18 11:27 | 49.32442 | 3.68916 | 32191 ft | 417 kts | 255° |
| 2026-04-18 11:27 | 49.31107 | 3.60305 | 32193 ft | 417 kts | 255° |
| 2026-04-18 11:28 | 49.29791 | 3.51643 | 32188 ft | 416 kts | 255° |
| 2026-04-18 11:28 | 49.28521 | 3.43048 | 32189 ft | 413 kts | 255° |
| 2026-04-18 11:29 | 49.27261 | 3.34484 | 32187 ft | 413 kts | 255° |
| 2026-04-18 11:29 | 49.25996 | 3.25938 | 32202 ft | 413 kts | 255° |
| 2026-04-18 11:30 | 49.24719 | 3.17367 | 32196 ft | 415 kts | 255° |
| 2026-04-18 11:30 | 49.23433 | 3.08782 | 32209 ft | 415 kts | 255° |
| 2026-04-18 11:31 | 49.22144 | 3.00221 | 32202 ft | 412 kts | 255° |
| 2026-04-18 11:31 | 49.20847 | 2.91665 | 32185 ft | 412 kts | 255° |
| 2026-04-18 11:32 | 49.19550 | 2.83152 | 32207 ft | 412 kts | 255° |
| 2026-04-18 11:32 | 49.18244 | 2.74624 | 32206 ft | 412 kts | 255° |
| 2026-04-18 11:33 | 49.16934 | 2.66113 | 32214 ft | 412 kts | 255° |
| 2026-04-18 11:33 | 49.15613 | 2.57576 | 32206 ft | 410 kts | 255° |
| 2026-04-18 11:34 | 49.14302 | 2.49144 | 32211 ft | 409 kts | 255° |
| 2026-04-18 11:34 | 49.13001 | 2.40707 | 32202 ft | 409 kts | 257° |
| 2026-04-18 11:35 | 49.12102 | 2.32125 | 32217 ft | 410 kts | 259° |
| 2026-04-18 11:35 | 49.11290 | 2.23476 | 32206 ft | 410 kts | 259° |
| 2026-04-18 11:36 | 49.10496 | 2.14876 | 32210 ft | 408 kts | 259° |
| 2026-04-18 11:36 | 49.09638 | 2.06381 | 32214 ft | 406 kts | 255° |
| 2026-04-18 11:37 | 49.07824 | 1.98269 | 32211 ft | 404 kts | 246° |
| 2026-04-18 11:37 | 49.05529 | 1.90434 | 32193 ft | 406 kts | 244° |
| 2026-04-18 11:38 | 49.03127 | 1.82572 | 32206 ft | 409 kts | 244° |
| 2026-04-18 11:38 | 49.00731 | 1.74732 | 32222 ft | 409 kts | 244° |
| 2026-04-18 11:39 | 48.98353 | 1.66911 | 32211 ft | 406 kts | 244° |
| 2026-04-18 11:39 | 48.95985 | 1.59128 | 32222 ft | 406 kts | 244° |
| 2026-04-18 11:40 | 48.93609 | 1.51343 | 32214 ft | 406 kts | 244° |
| 2026-04-18 11:40 | 48.91234 | 1.43584 | 32216 ft | 406 kts | 244° |
| 2026-04-18 11:41 | 48.88833 | 1.35770 | 32218 ft | 406 kts | 244° |
| 2026-04-18 11:41 | 48.86454 | 1.28051 | 32224 ft | 405 kts | 244° |
| 2026-04-18 11:42 | 48.84056 | 1.20292 | 32222 ft | 403 kts | 244° |
| 2026-04-18 11:42 | 48.81733 | 1.12563 | 32222 ft | 403 kts | 246° |
| 2026-04-18 11:43 | 48.79408 | 1.04858 | 32222 ft | 403 kts | 246° |
| 2026-04-18 11:43 | 48.77442 | 0.98436 | 32228 ft | 403 kts | 245° |
| 2026-04-18 11:44 | 48.75047 | 0.90764 | 32225 ft | 403 kts | 244° |
| 2026-04-18 11:44 | 48.72243 | 0.83367 | 32226 ft | 403 kts | 240° |
| 2026-04-18 11:45 | 48.69341 | 0.76162 | 32224 ft | 402 kts | 240° |
| 2026-04-18 11:45 | 48.66397 | 0.68940 | 32232 ft | 402 kts | 239° |
| 2026-04-18 11:46 | 48.63458 | 0.61738 | 32219 ft | 403 kts | 239° |
| 2026-04-18 11:46 | 48.60520 | 0.54537 | 32234 ft | 404 kts | 239° |
| 2026-04-18 11:47 | 48.57548 | 0.47268 | 32236 ft | 404 kts | 239° |
| 2026-04-18 11:47 | 48.54589 | 0.40052 | 32229 ft | 404 kts | 239° |
| 2026-04-18 11:48 | 48.51631 | 0.32856 | 32235 ft | 403 kts | 239° |
| 2026-04-18 11:48 | 48.48678 | 0.25693 | 32235 ft | 403 kts | 239° |
| 2026-04-18 11:49 | 48.45727 | 0.18555 | 32235 ft | 403 kts | 239° |
| 2026-04-18 11:49 | 48.42758 | 0.11391 | 32223 ft | 403 kts | 239° |
| 2026-04-18 11:50 | 48.39762 | 0.04180 | 32235 ft | 404 kts | 239° |
| 2026-04-18 11:50 | 48.36794 | -0.02944 | 32238 ft | 404 kts | 239° |
| 2026-04-18 11:51 | 48.33638 | -0.10003 | 32235 ft | 404 kts | 235° |
| 2026-04-18 11:51 | 48.30226 | -0.16698 | 32231 ft | 405 kts | 234° |
| 2026-04-18 11:52 | 48.26812 | -0.23387 | 32225 ft | 404 kts | 236° |
| 2026-04-18 11:52 | 48.23808 | -0.30542 | 32233 ft | 404 kts | 240° |
| 2026-04-18 11:53 | 48.20979 | -0.37780 | 32223 ft | 404 kts | 240° |
| 2026-04-18 11:53 | 48.18159 | -0.45073 | 32229 ft | 405 kts | 240° |
| 2026-04-18 11:54 | 48.15329 | -0.52352 | 32235 ft | 405 kts | 240° |
| 2026-04-18 11:54 | 48.12469 | -0.59663 | 32238 ft | 405 kts | 240° |
| 2026-04-18 11:55 | 48.09619 | -0.66923 | 32238 ft | 405 kts | 240° |
| 2026-04-18 11:55 | 48.06767 | -0.74165 | 32236 ft | 404 kts | 240° |
| 2026-04-18 11:56 | 48.03909 | -0.81404 | 32242 ft | 405 kts | 240° |
| 2026-04-18 11:56 | 48.01057 | -0.88610 | 32238 ft | 404 kts | 240° |
| 2026-04-18 11:57 | 47.98201 | -0.95806 | 32237 ft | 405 kts | 240° |
| 2026-04-18 11:57 | 47.95321 | -1.03043 | 32237 ft | 405 kts | 240° |
| 2026-04-18 11:58 | 47.92447 | -1.10247 | 32242 ft | 405 kts | 240° |
| 2026-04-18 11:58 | 47.89548 | -1.17493 | 32240 ft | 405 kts | 240° |
| 2026-04-18 11:59 | 47.86660 | -1.24692 | 32245 ft | 405 kts | 240° |
| 2026-04-18 11:59 | 47.83764 | -1.31893 | 32247 ft | 405 kts | 239° |
| 2026-04-18 12:00 | 47.80869 | -1.39071 | 32245 ft | 405 kts | 239° |
| 2026-04-18 12:00 | 47.77961 | -1.46263 | 32253 ft | 406 kts | 239° |
| 2026-04-18 12:01 | 47.73596 | -1.57020 | 32250 ft | 407 kts | 239° |
| 2026-04-18 12:02 | 47.70668 | -1.64213 | 32245 ft | 407 kts | 239° |
| 2026-04-18 12:02 | 47.67736 | -1.71397 | 32256 ft | 407 kts | 239° |
| 2026-04-18 12:03 | 47.64789 | -1.78598 | 32260 ft | 407 kts | 239° |
| 2026-04-18 12:03 | 47.61845 | -1.85772 | 32262 ft | 407 kts | 239° |
| 2026-04-18 12:04 | 47.58903 | -1.92924 | 32264 ft | 407 kts | 239° |
| 2026-04-18 12:04 | 47.55932 | -2.00128 | 32260 ft | 408 kts | 239° |
| 2026-04-18 12:05 | 47.52975 | -2.07276 | 32262 ft | 409 kts | 239° |
| 2026-04-18 12:05 | 47.50000 | -2.14452 | 32268 ft | 409 kts | 239° |
| 2026-04-18 12:06 | 47.47020 | -2.21618 | 32266 ft | 409 kts | 239° |
| 2026-04-18 12:06 | 47.44032 | -2.28786 | 32269 ft | 409 kts | 239° |
| 2026-04-18 12:07 | 47.41040 | -2.35945 | 32272 ft | 409 kts | 238° |
| 2026-04-18 12:07 | 47.38043 | -2.43097 | 32270 ft | 409 kts | 238° |
| 2026-04-18 12:08 | 47.35055 | -2.50207 | 32273 ft | 410 kts | 238° |
| 2026-04-18 12:08 | 47.32045 | -2.57354 | 32274 ft | 411 kts | 238° |
| 2026-04-18 12:09 | 47.29020 | -2.64515 | 32275 ft | 412 kts | 238° |
| 2026-04-18 12:09 | 47.25989 | -2.71673 | 32287 ft | 412 kts | 238° |
| 2026-04-18 12:10 | 47.22953 | -2.78822 | 32284 ft | 412 kts | 238° |
| 2026-04-18 12:10 | 47.19927 | -2.85932 | 32292 ft | 412 kts | 238° |
| 2026-04-18 12:11 | 47.16869 | -2.93097 | 32295 ft | 412 kts | 238° |
| 2026-04-18 12:11 | 47.14052 | -3.00446 | 32374 ft | 416 kts | 246° |
| 2026-04-18 12:12 | 47.12152 | -3.08513 | 32486 ft | 421 kts | 251° |
| 2026-04-18 12:12 | 47.11299 | -3.12645 | 32604 ft | 421 kts | 252° |
| 2026-04-18 12:12 | 47.10481 | -3.16720 | 32772 ft | 421 kts | 252° |
| 2026-04-18 12:12 | 47.09657 | -3.20857 | 32932 ft | 420 kts | 252° |
| 2026-04-18 12:13 | 47.08829 | -3.24999 | 33092 ft | 420 kts | 252° |
| 2026-04-18 12:13 | 47.08008 | -3.29068 | 33266 ft | 419 kts | 252° |
| 2026-04-18 12:13 | 47.07172 | -3.33181 | 33323 ft | 416 kts | 251° |
| 2026-04-18 12:14 | 47.05531 | -3.41192 | 33308 ft | 408 kts | 251° |
| 2026-04-18 12:14 | 47.03896 | -3.49109 | 33322 ft | 408 kts | 251° |
| 2026-04-18 12:15 | 47.02245 | -3.57072 | 33306 ft | 408 kts | 251° |
| 2026-04-18 12:15 | 47.00582 | -3.65070 | 33313 ft | 408 kts | 251° |
| 2026-04-18 12:16 | 46.98931 | -3.72984 | 33316 ft | 409 kts | 251° |
| 2026-04-18 12:16 | 46.97260 | -3.80957 | 33320 ft | 411 kts | 251° |
| 2026-04-18 12:17 | 46.95578 | -3.88954 | 33319 ft | 411 kts | 251° |
| 2026-04-18 12:17 | 46.93894 | -3.96927 | 33322 ft | 411 kts | 251° |
| 2026-04-18 12:18 | 46.92198 | -4.04930 | 33322 ft | 411 kts | 251° |
| 2026-04-18 12:18 | 46.90505 | -4.12881 | 33329 ft | 411 kts | 251° |
| 2026-04-18 12:19 | 46.88799 | -4.20866 | 33328 ft | 413 kts | 251° |
| 2026-04-18 12:19 | 46.87072 | -4.28916 | 33330 ft | 413 kts | 251° |
| 2026-04-18 12:20 | 46.85346 | -4.36936 | 33332 ft | 413 kts | 251° |
| 2026-04-18 12:20 | 46.83616 | -4.44938 | 33320 ft | 413 kts | 251° |
| 2026-04-18 12:21 | 46.81883 | -4.52922 | 33333 ft | 413 kts | 251° |
| 2026-04-18 12:21 | 46.80144 | -4.60905 | 33322 ft | 414 kts | 251° |
| 2026-04-18 12:22 | 46.78398 | -4.68889 | 33321 ft | 413 kts | 251° |